sensor_id;sensor_type;location;lat;lon;timestamp;P1;durP1;ratioP1;P2;durP2;ratioP2
66145;SDS011;52948;60.040;30.320;2023-05-07T00:00:37;3.38;;;2.28;;
66145;SDS011;52948;60.040;30.320;2023-05-07T00:05:39;6.43;;;2.35;;
66145;SDS011;52948;60.040;30.320;2023-05-07T00:10:41;4.53;;;2.50;;
66145;SDS011;52948;60.040;30.320;2023-05-07T00:15:43;3.53;;;2.28;;
66145;SDS011;52948;60.040;30.320;2023-05-07T00:20:46;4.38;;;2.47;;
66145;SDS011;52948;60.040;30.320;2023-05-07T00:25:48;5.75;;;2.90;;
66145;SDS011;52948;60.040;30.320;2023-05-07T00:30:50;5.10;;;2.58;;
66145;SDS011;52948;60.040;30.320;2023-05-07T00:35:53;4.88;;;2.88;;
66145;SDS011;52948;60.040;30.320;2023-05-07T00:40:56;5.65;;;3.05;;
66145;SDS011;52948;60.040;30.320;2023-05-07T00:45:59;3.55;;;2.42;;
66145;SDS011;52948;60.040;30.320;2023-05-07T00:51:01;4.88;;;2.42;;
66145;SDS011;52948;60.040;30.320;2023-05-07T00:56:04;3.83;;;2.80;;
66145;SDS011;52948;60.040;30.320;2023-05-07T01:01:08;3.55;;;2.25;;
66145;SDS011;52948;60.040;30.320;2023-05-07T01:06:10;6.55;;;2.35;;
66145;SDS011;52948;60.040;30.320;2023-05-07T01:11:14;5.47;;;2.40;;
66145;SDS011;52948;60.040;30.320;2023-05-07T01:16:17;3.47;;;2.03;;
66145;SDS011;52948;60.040;30.320;2023-05-07T01:21:19;2.88;;;2.28;;
66145;SDS011;52948;60.040;30.320;2023-05-07T01:26:32;3.47;;;2.50;;
66145;SDS011;52948;60.040;30.320;2023-05-07T01:31:34;6.53;;;2.38;;
66145;SDS011;52948;60.040;30.320;2023-05-07T01:36:38;3.08;;;2.03;;
66145;SDS011;52948;60.040;30.320;2023-05-07T01:41:41;4.05;;;2.28;;
66145;SDS011;52948;60.040;30.320;2023-05-07T01:46:45;4.40;;;2.47;;
66145;SDS011;52948;60.040;30.320;2023-05-07T01:51:50;7.13;;;2.75;;
66145;SDS011;52948;60.040;30.320;2023-05-07T01:56:53;5.32;;;2.47;;
66145;SDS011;52948;60.040;30.320;2023-05-07T02:01:57;4.10;;;2.75;;
66145;SDS011;52948;60.040;30.320;2023-05-07T02:06:59;3.20;;;2.38;;
66145;SDS011;52948;60.040;30.320;2023-05-07T02:12:03;4.30;;;2.55;;
66145;SDS011;52948;60.040;30.320;2023-05-07T02:17:06;6.22;;;2.42;;
66145;SDS011;52948;60.040;30.320;2023-05-07T02:22:09;5.22;;;2.65;;
66145;SDS011;52948;60.040;30.320;2023-05-07T02:27:12;5.68;;;2.45;;
66145;SDS011;52948;60.040;30.320;2023-05-07T02:32:14;3.80;;;2.42;;
66145;SDS011;52948;60.040;30.320;2023-05-07T02:37:17;4.88;;;2.83;;
66145;SDS011;52948;60.040;30.320;2023-05-07T02:42:19;5.88;;;2.60;;
66145;SDS011;52948;60.040;30.320;2023-05-07T02:47:21;2.60;;;2.03;;
66145;SDS011;52948;60.040;30.320;2023-05-07T02:52:24;4.47;;;2.20;;
66145;SDS011;52948;60.040;30.320;2023-05-07T02:57:26;4.50;;;2.53;;
66145;SDS011;52948;60.040;30.320;2023-05-07T03:02:29;3.25;;;2.05;;
66145;SDS011;52948;60.040;30.320;2023-05-07T03:07:31;3.05;;;2.10;;
66145;SDS011;52948;60.040;30.320;2023-05-07T03:12:34;3.13;;;2.33;;
66145;SDS011;52948;60.040;30.320;2023-05-07T03:17:36;3.25;;;2.03;;
66145;SDS011;52948;60.040;30.320;2023-05-07T03:22:38;9.35;;;2.30;;
66145;SDS011;52948;60.040;30.320;2023-05-07T03:27:41;5.93;;;2.03;;
66145;SDS011;52948;60.040;30.320;2023-05-07T03:32:44;4.13;;;2.15;;
66145;SDS011;52948;60.040;30.320;2023-05-07T03:37:47;3.30;;;2.13;;
66145;SDS011;52948;60.040;30.320;2023-05-07T03:48:22;6.22;;;1.75;;
66145;SDS011;52948;60.040;30.320;2023-05-07T03:53:26;7.80;;;2.40;;
66145;SDS011;52948;60.040;30.320;2023-05-07T03:58:29;3.47;;;1.90;;
66145;SDS011;52948;60.040;30.320;2023-05-07T04:03:35;3.00;;;1.83;;
66145;SDS011;52948;60.040;30.320;2023-05-07T04:08:37;2.97;;;2.22;;
66145;SDS011;52948;60.040;30.320;2023-05-07T04:13:41;3.13;;;2.33;;
66145;SDS011;52948;60.040;30.320;2023-05-07T04:18:45;4.10;;;2.00;;
66145;SDS011;52948;60.040;30.320;2023-05-07T04:23:47;6.55;;;2.00;;
66145;SDS011;52948;60.040;30.320;2023-05-07T04:28:50;4.07;;;2.05;;
66145;SDS011;52948;60.040;30.320;2023-05-07T04:33:52;3.90;;;2.10;;
66145;SDS011;52948;60.040;30.320;2023-05-07T04:38:55;3.30;;;2.03;;
66145;SDS011;52948;60.040;30.320;2023-05-07T04:43:57;3.38;;;2.10;;
66145;SDS011;52948;60.040;30.320;2023-05-07T04:49:02;5.10;;;2.35;;
66145;SDS011;52948;60.040;30.320;2023-05-07T04:54:05;5.10;;;2.38;;
66145;SDS011;52948;60.040;30.320;2023-05-07T04:59:07;3.05;;;1.88;;
66145;SDS011;52948;60.040;30.320;2023-05-07T05:04:09;3.20;;;2.35;;
66145;SDS011;52948;60.040;30.320;2023-05-07T05:09:12;2.50;;;1.70;;
66145;SDS011;52948;60.040;30.320;2023-05-07T05:14:16;3.15;;;1.70;;
66145;SDS011;52948;60.040;30.320;2023-05-07T05:19:18;2.38;;;1.60;;
66145;SDS011;52948;60.040;30.320;2023-05-07T05:24:20;2.15;;;1.50;;
66145;SDS011;52948;60.040;30.320;2023-05-07T05:29:23;8.05;;;1.75;;
66145;SDS011;52948;60.040;30.320;2023-05-07T05:34:25;4.00;;;1.92;;
66145;SDS011;52948;60.040;30.320;2023-05-07T05:39:28;4.00;;;1.70;;
66145;SDS011;52948;60.040;30.320;2023-05-07T05:44:31;2.05;;;1.30;;
66145;SDS011;52948;60.040;30.320;2023-05-07T05:49:33;1.63;;;1.30;;
66145;SDS011;52948;60.040;30.320;2023-05-07T05:54:36;2.75;;;1.50;;
66145;SDS011;52948;60.040;30.320;2023-05-07T05:59:38;2.55;;;1.20;;
66145;SDS011;52948;60.040;30.320;2023-05-07T06:04:41;2.10;;;1.27;;
66145;SDS011;52948;60.040;30.320;2023-05-07T06:09:45;3.35;;;1.50;;
66145;SDS011;52948;60.040;30.320;2023-05-07T06:14:47;2.90;;;1.55;;
66145;SDS011;52948;60.040;30.320;2023-05-07T06:19:49;2.22;;;1.38;;
66145;SDS011;52948;60.040;30.320;2023-05-07T06:24:55;2.13;;;1.60;;
66145;SDS011;52948;60.040;30.320;2023-05-07T06:29:58;4.53;;;1.50;;
66145;SDS011;52948;60.040;30.320;2023-05-07T06:35:00;2.45;;;1.48;;
66145;SDS011;52948;60.040;30.320;2023-05-07T06:40:03;1.30;;;0.90;;
66145;SDS011;52948;60.040;30.320;2023-05-07T06:45:08;1.40;;;1.20;;
66145;SDS011;52948;60.040;30.320;2023-05-07T06:50:13;2.58;;;1.00;;
66145;SDS011;52948;60.040;30.320;2023-05-07T06:55:18;1.63;;;1.15;;
66145;SDS011;52948;60.040;30.320;2023-05-07T07:00:21;2.45;;;1.15;;
66145;SDS011;52948;60.040;30.320;2023-05-07T07:05:28;3.72;;;2.00;;
66145;SDS011;52948;60.040;30.320;2023-05-07T07:10:31;1.10;;;0.90;;
66145;SDS011;52948;60.040;30.320;2023-05-07T07:15:35;0.75;;;0.75;;
66145;SDS011;52948;60.040;30.320;2023-05-07T07:20:37;1.40;;;0.90;;
66145;SDS011;52948;60.040;30.320;2023-05-07T07:25:40;1.80;;;1.00;;
66145;SDS011;52948;60.040;30.320;2023-05-07T07:30:43;1.30;;;0.90;;
66145;SDS011;52948;60.040;30.320;2023-05-07T07:35:47;3.28;;;1.02;;
66145;SDS011;52948;60.040;30.320;2023-05-07T07:40:50;1.10;;;0.88;;
66145;SDS011;52948;60.040;30.320;2023-05-07T07:45:53;1.55;;;0.80;;
66145;SDS011;52948;60.040;30.320;2023-05-07T07:50:56;0.82;;;0.70;;
66145;SDS011;52948;60.040;30.320;2023-05-07T07:55:58;2.22;;;0.82;;
66145;SDS011;52948;60.040;30.320;2023-05-07T08:01:03;0.90;;;0.80;;
66145;SDS011;52948;60.040;30.320;2023-05-07T08:06:06;1.10;;;1.00;;
66145;SDS011;52948;60.040;30.320;2023-05-07T08:11:10;0.90;;;0.90;;
66145;SDS011;52948;60.040;30.320;2023-05-07T08:16:18;0.80;;;0.80;;
66145;SDS011;52948;60.040;30.320;2023-05-07T08:21:20;1.85;;;0.90;;
66145;SDS011;52948;60.040;30.320;2023-05-07T08:26:23;1.67;;;1.00;;
66145;SDS011;52948;60.040;30.320;2023-05-07T08:31:26;2.28;;;1.10;;
66145;SDS011;52948;60.040;30.320;2023-05-07T08:36:28;1.35;;;1.20;;
66145;SDS011;52948;60.040;30.320;2023-05-07T08:41:30;5.20;;;1.10;;
66145;SDS011;52948;60.040;30.320;2023-05-07T08:46:33;0.90;;;0.82;;
66145;SDS011;52948;60.040;30.320;2023-05-07T08:51:36;1.27;;;0.98;;
66145;SDS011;52948;60.040;30.320;2023-05-07T08:56:39;1.35;;;1.00;;
66145;SDS011;52948;60.040;30.320;2023-05-07T09:01:46;0.98;;;0.85;;
66145;SDS011;52948;60.040;30.320;2023-05-07T09:06:49;1.35;;;1.13;;
66145;SDS011;52948;60.040;30.320;2023-05-07T09:11:58;1.10;;;1.00;;
66145;SDS011;52948;60.040;30.320;2023-05-07T09:17:03;1.10;;;1.00;;
66145;SDS011;52948;60.040;30.320;2023-05-07T09:22:06;1.83;;;1.10;;
66145;SDS011;52948;60.040;30.320;2023-05-07T09:27:22;1.15;;;1.05;;
66145;SDS011;52948;60.040;30.320;2023-05-07T09:32:24;0.65;;;0.65;;
66145;SDS011;52948;60.040;30.320;2023-05-07T09:37:27;1.48;;;0.93;;
66145;SDS011;52948;60.040;30.320;2023-05-07T09:42:30;3.03;;;1.30;;
66145;SDS011;52948;60.040;30.320;2023-05-07T09:47:36;2.88;;;1.88;;
66145;SDS011;52948;60.040;30.320;2023-05-07T09:52:41;1.23;;;1.20;;
66145;SDS011;52948;60.040;30.320;2023-05-07T09:57:45;1.70;;;1.05;;
66145;SDS011;52948;60.040;30.320;2023-05-07T10:02:49;1.73;;;1.05;;
66145;SDS011;52948;60.040;30.320;2023-05-07T10:07:57;2.92;;;1.30;;
66145;SDS011;52948;60.040;30.320;2023-05-07T10:13:00;1.90;;;1.23;;
66145;SDS011;52948;60.040;30.320;2023-05-07T10:18:08;1.30;;;1.20;;
66145;SDS011;52948;60.040;30.320;2023-05-07T10:23:13;3.42;;;1.35;;
66145;SDS011;52948;60.040;30.320;2023-05-07T10:28:26;1.00;;;1.00;;
66145;SDS011;52948;60.040;30.320;2023-05-07T10:33:31;1.20;;;1.13;;
66145;SDS011;52948;60.040;30.320;2023-05-07T10:38:35;1.80;;;1.30;;
66145;SDS011;52948;60.040;30.320;2023-05-07T10:43:41;3.10;;;1.35;;
66145;SDS011;52948;60.040;30.320;2023-05-07T10:54:22;1.88;;;1.30;;
66145;SDS011;52948;60.040;30.320;2023-05-07T10:59:39;1.48;;;1.05;;
66145;SDS011;52948;60.040;30.320;2023-05-07T11:05:21;1.48;;;1.13;;
66145;SDS011;52948;60.040;30.320;2023-05-07T11:10:56;1.75;;;1.45;;
66145;SDS011;52948;60.040;30.320;2023-05-07T11:16:21;1.80;;;1.17;;
66145;SDS011;52948;60.040;30.320;2023-05-07T11:21:36;2.10;;;1.25;;
66145;SDS011;52948;60.040;30.320;2023-05-07T11:26:49;2.08;;;1.10;;
66145;SDS011;52948;60.040;30.320;2023-05-07T11:31:53;3.83;;;0.80;;
66145;SDS011;52948;60.040;30.320;2023-05-07T11:36:58;1.50;;;0.95;;
66145;SDS011;52948;60.040;30.320;2023-05-07T11:42:29;1.00;;;0.90;;
66145;SDS011;52948;60.040;30.320;2023-05-07T11:47:32;2.50;;;1.25;;
66145;SDS011;52948;60.040;30.320;2023-05-07T11:52:35;3.63;;;1.33;;
66145;SDS011;52948;60.040;30.320;2023-05-07T11:57:37;2.25;;;1.23;;
66145;SDS011;52948;60.040;30.320;2023-05-07T12:02:40;1.77;;;1.02;;
66145;SDS011;52948;60.040;30.320;2023-05-07T12:07:43;2.10;;;0.93;;
66145;SDS011;52948;60.040;30.320;2023-05-07T12:12:45;1.30;;;1.17;;
66145;SDS011;52948;60.040;30.320;2023-05-07T12:17:48;1.13;;;0.98;;
66145;SDS011;52948;60.040;30.320;2023-05-07T12:22:51;4.70;;;1.23;;
66145;SDS011;52948;60.040;30.320;2023-05-07T12:27:53;0.82;;;0.82;;
66145;SDS011;52948;60.040;30.320;2023-05-07T12:32:56;1.60;;;0.93;;
66145;SDS011;52948;60.040;30.320;2023-05-07T12:37:59;1.45;;;0.90;;
66145;SDS011;52948;60.040;30.320;2023-05-07T12:43:05;0.88;;;0.88;;
66145;SDS011;52948;60.040;30.320;2023-05-07T12:48:09;2.40;;;1.10;;
66145;SDS011;52948;60.040;30.320;2023-05-07T12:53:12;1.95;;;1.13;;
66145;SDS011;52948;60.040;30.320;2023-05-07T12:58:15;1.15;;;1.05;;
66145;SDS011;52948;60.040;30.320;2023-05-07T13:03:28;2.22;;;1.30;;
66145;SDS011;52948;60.040;30.320;2023-05-07T13:08:32;1.48;;;1.10;;
66145;SDS011;52948;60.040;30.320;2023-05-07T13:13:36;2.22;;;1.10;;
66145;SDS011;52948;60.040;30.320;2023-05-07T13:18:40;1.67;;;1.10;;
66145;SDS011;52948;60.040;30.320;2023-05-07T13:23:42;0.75;;;0.65;;
66145;SDS011;52948;60.040;30.320;2023-05-07T13:28:44;2.65;;;1.05;;
66145;SDS011;52948;60.040;30.320;2023-05-07T13:33:46;1.63;;;1.08;;
66145;SDS011;52948;60.040;30.320;2023-05-07T13:38:49;2.25;;;1.00;;
66145;SDS011;52948;60.040;30.320;2023-05-07T13:43:53;3.65;;;1.05;;
66145;SDS011;52948;60.040;30.320;2023-05-07T13:48:55;1.95;;;1.70;;
66145;SDS011;52948;60.040;30.320;2023-05-07T13:53:57;2.85;;;1.40;;
66145;SDS011;52948;60.040;30.320;2023-05-07T13:59:00;2.47;;;1.50;;
66145;SDS011;52948;60.040;30.320;2023-05-07T14:04:02;1.88;;;1.17;;
66145;SDS011;52948;60.040;30.320;2023-05-07T14:09:05;3.22;;;1.23;;
66145;SDS011;52948;60.040;30.320;2023-05-07T14:14:07;2.30;;;1.70;;
66145;SDS011;52948;60.040;30.320;2023-05-07T14:19:09;4.45;;;1.73;;
66145;SDS011;52948;60.040;30.320;2023-05-07T14:24:11;2.20;;;1.20;;
66145;SDS011;52948;60.040;30.320;2023-05-07T14:29:13;1.00;;;0.90;;
66145;SDS011;52948;60.040;30.320;2023-05-07T14:34:17;3.22;;;1.63;;
66145;SDS011;52948;60.040;30.320;2023-05-07T14:39:19;2.15;;;1.33;;
66145;SDS011;52948;60.040;30.320;2023-05-07T14:44:22;2.65;;;1.23;;
66145;SDS011;52948;60.040;30.320;2023-05-07T14:49:24;1.80;;;1.35;;
66145;SDS011;52948;60.040;30.320;2023-05-07T14:54:26;2.45;;;1.30;;
66145;SDS011;52948;60.040;30.320;2023-05-07T14:59:28;2.00;;;1.40;;
66145;SDS011;52948;60.040;30.320;2023-05-07T15:04:30;1.65;;;0.90;;
66145;SDS011;52948;60.040;30.320;2023-05-07T15:09:32;2.35;;;1.00;;
66145;SDS011;52948;60.040;30.320;2023-05-07T15:14:35;1.52;;;1.23;;
66145;SDS011;52948;60.040;30.320;2023-05-07T15:19:37;4.68;;;1.40;;
66145;SDS011;52948;60.040;30.320;2023-05-07T15:24:39;1.77;;;1.17;;
66145;SDS011;52948;60.040;30.320;2023-05-07T15:29:42;1.08;;;0.98;;
66145;SDS011;52948;60.040;30.320;2023-05-07T15:34:44;1.40;;;1.08;;
66145;SDS011;52948;60.040;30.320;2023-05-07T15:39:48;1.92;;;0.90;;
66145;SDS011;52948;60.040;30.320;2023-05-07T15:44:50;1.30;;;1.20;;
66145;SDS011;52948;60.040;30.320;2023-05-07T15:49:52;1.85;;;1.05;;
66145;SDS011;52948;60.040;30.320;2023-05-07T15:54:54;3.05;;;1.90;;
66145;SDS011;52948;60.040;30.320;2023-05-07T15:59:57;6.05;;;2.25;;
66145;SDS011;52948;60.040;30.320;2023-05-07T16:04:59;4.43;;;1.98;;
66145;SDS011;52948;60.040;30.320;2023-05-07T16:10:02;3.25;;;1.58;;
66145;SDS011;52948;60.040;30.320;2023-05-07T16:15:05;2.25;;;1.50;;
66145;SDS011;52948;60.040;30.320;2023-05-07T16:20:08;2.08;;;1.40;;
66145;SDS011;52948;60.040;30.320;2023-05-07T16:25:13;2.67;;;1.27;;
66145;SDS011;52948;60.040;30.320;2023-05-07T16:30:15;1.60;;;1.15;;
66145;SDS011;52948;60.040;30.320;2023-05-07T16:35:18;1.73;;;1.10;;
66145;SDS011;52948;60.040;30.320;2023-05-07T16:40:20;2.83;;;1.80;;
66145;SDS011;52948;60.040;30.320;2023-05-07T16:45:22;2.70;;;1.27;;
66145;SDS011;52948;60.040;30.320;2023-05-07T16:50:25;3.03;;;1.38;;
66145;SDS011;52948;60.040;30.320;2023-05-07T16:55:27;2.17;;;1.38;;
66145;SDS011;52948;60.040;30.320;2023-05-07T17:00:31;2.17;;;1.15;;
66145;SDS011;52948;60.040;30.320;2023-05-07T17:05:33;2.60;;;1.40;;
66145;SDS011;52948;60.040;30.320;2023-05-07T17:10:36;2.08;;;1.65;;
66145;SDS011;52948;60.040;30.320;2023-05-07T17:15:38;1.70;;;1.02;;
66145;SDS011;52948;60.040;30.320;2023-05-07T17:20:41;1.10;;;0.93;;
66145;SDS011;52948;60.040;30.320;2023-05-07T17:25:44;4.10;;;1.25;;
66145;SDS011;52948;60.040;30.320;2023-05-07T17:30:47;2.60;;;1.70;;
66145;SDS011;52948;60.040;30.320;2023-05-07T17:35:50;3.60;;;1.70;;
66145;SDS011;52948;60.040;30.320;2023-05-07T17:40:53;2.47;;;1.83;;
66145;SDS011;52948;60.040;30.320;2023-05-07T17:45:56;3.88;;;1.70;;
66145;SDS011;52948;60.040;30.320;2023-05-07T17:51:01;2.60;;;1.60;;
66145;SDS011;52948;60.040;30.320;2023-05-07T17:56:04;6.22;;;1.63;;
66145;SDS011;52948;60.040;30.320;2023-05-07T18:01:07;2.47;;;1.42;;
66145;SDS011;52948;60.040;30.320;2023-05-07T18:06:09;1.65;;;1.40;;
66145;SDS011;52948;60.040;30.320;2023-05-07T18:11:16;1.90;;;1.48;;
66145;SDS011;52948;60.040;30.320;2023-05-07T18:16:18;3.72;;;1.80;;
66145;SDS011;52948;60.040;30.320;2023-05-07T18:21:20;4.13;;;2.08;;
66145;SDS011;52948;60.040;30.320;2023-05-07T18:26:23;6.40;;;2.80;;
66145;SDS011;52948;60.040;30.320;2023-05-07T18:31:30;4.53;;;2.30;;
66145;SDS011;52948;60.040;30.320;2023-05-07T18:36:32;6.40;;;2.83;;
66145;SDS011;52948;60.040;30.320;2023-05-07T18:41:35;4.70;;;2.80;;
66145;SDS011;52948;60.040;30.320;2023-05-07T18:46:37;4.32;;;2.72;;
66145;SDS011;52948;60.040;30.320;2023-05-07T18:51:39;4.35;;;2.75;;
66145;SDS011;52948;60.040;30.320;2023-05-07T18:56:42;3.60;;;2.50;;
66145;SDS011;52948;60.040;30.320;2023-05-07T19:01:44;4.30;;;2.50;;
66145;SDS011;52948;60.040;30.320;2023-05-07T19:06:47;4.60;;;2.60;;
66145;SDS011;52948;60.040;30.320;2023-05-07T19:11:49;3.60;;;2.10;;
66145;SDS011;52948;60.040;30.320;2023-05-07T19:16:51;6.25;;;2.20;;
66145;SDS011;52948;60.040;30.320;2023-05-07T19:21:53;5.03;;;2.50;;
66145;SDS011;52948;60.040;30.320;2023-05-07T19:26:56;3.60;;;2.05;;
66145;SDS011;52948;60.040;30.320;2023-05-07T19:31:58;6.57;;;2.10;;
66145;SDS011;52948;60.040;30.320;2023-05-07T19:37:00;3.08;;;1.98;;
66145;SDS011;52948;60.040;30.320;2023-05-07T19:42:02;3.00;;;1.73;;
66145;SDS011;52948;60.040;30.320;2023-05-07T19:47:04;4.95;;;2.08;;
66145;SDS011;52948;60.040;30.320;2023-05-07T19:52:07;4.05;;;1.95;;
66145;SDS011;52948;60.040;30.320;2023-05-07T19:57:09;3.75;;;1.90;;
66145;SDS011;52948;60.040;30.320;2023-05-07T20:02:12;4.40;;;2.08;;
66145;SDS011;52948;60.040;30.320;2023-05-07T20:07:14;2.42;;;1.85;;
66145;SDS011;52948;60.040;30.320;2023-05-07T20:12:16;4.45;;;1.80;;
66145;SDS011;52948;60.040;30.320;2023-05-07T20:17:19;5.60;;;1.88;;
66145;SDS011;52948;60.040;30.320;2023-05-07T20:22:21;3.47;;;2.40;;
66145;SDS011;52948;60.040;30.320;2023-05-07T20:27:24;3.05;;;2.08;;
66145;SDS011;52948;60.040;30.320;2023-05-07T20:32:26;2.20;;;1.70;;
66145;SDS011;52948;60.040;30.320;2023-05-07T20:37:29;4.03;;;1.80;;
66145;SDS011;52948;60.040;30.320;2023-05-07T20:42:32;4.65;;;1.80;;
66145;SDS011;52948;60.040;30.320;2023-05-07T20:47:35;5.88;;;2.80;;
66145;SDS011;52948;60.040;30.320;2023-05-07T20:52:37;3.78;;;2.00;;
66145;SDS011;52948;60.040;30.320;2023-05-07T20:57:40;2.55;;;1.80;;
66145;SDS011;52948;60.040;30.320;2023-05-07T21:02:43;2.67;;;2.03;;
66145;SDS011;52948;60.040;30.320;2023-05-07T21:07:45;2.35;;;1.65;;
66145;SDS011;52948;60.040;30.320;2023-05-07T21:12:47;5.63;;;2.20;;
66145;SDS011;52948;60.040;30.320;2023-05-07T21:17:50;4.88;;;2.25;;
66145;SDS011;52948;60.040;30.320;2023-05-07T21:22:52;8.73;;;2.88;;
66145;SDS011;52948;60.040;30.320;2023-05-07T21:27:54;6.05;;;2.42;;
66145;SDS011;52948;60.040;30.320;2023-05-07T21:32:56;3.40;;;2.10;;
66145;SDS011;52948;60.040;30.320;2023-05-07T21:37:58;4.25;;;2.53;;
66145;SDS011;52948;60.040;30.320;2023-05-07T21:43:03;4.93;;;2.42;;
66145;SDS011;52948;60.040;30.320;2023-05-07T21:48:06;7.35;;;3.85;;
66145;SDS011;52948;60.040;30.320;2023-05-07T21:53:08;7.03;;;3.75;;
66145;SDS011;52948;60.040;30.320;2023-05-07T21:58:10;14.25;;;4.43;;
66145;SDS011;52948;60.040;30.320;2023-05-07T22:03:12;9.10;;;4.13;;
66145;SDS011;52948;60.040;30.320;2023-05-07T22:08:14;6.63;;;3.60;;
66145;SDS011;52948;60.040;30.320;2023-05-07T22:13:17;8.63;;;3.25;;
66145;SDS011;52948;60.040;30.320;2023-05-07T22:18:19;5.40;;;2.53;;
66145;SDS011;52948;60.040;30.320;2023-05-07T22:23:21;4.40;;;2.80;;
66145;SDS011;52948;60.040;30.320;2023-05-07T22:28:23;4.03;;;2.65;;
66145;SDS011;52948;60.040;30.320;2023-05-07T22:33:26;5.38;;;2.50;;
66145;SDS011;52948;60.040;30.320;2023-05-07T22:38:28;5.15;;;2.45;;
66145;SDS011;52948;60.040;30.320;2023-05-07T22:43:30;4.60;;;2.20;;
66145;SDS011;52948;60.040;30.320;2023-05-07T22:48:32;3.20;;;1.85;;
66145;SDS011;52948;60.040;30.320;2023-05-07T22:53:34;2.92;;;1.65;;
66145;SDS011;52948;60.040;30.320;2023-05-07T22:58:36;2.10;;;1.70;;
66145;SDS011;52948;60.040;30.320;2023-05-07T23:03:39;1.83;;;1.55;;
66145;SDS011;52948;60.040;30.320;2023-05-07T23:08:41;4.47;;;1.88;;
66145;SDS011;52948;60.040;30.320;2023-05-07T23:13:43;2.67;;;1.60;;
66145;SDS011;52948;60.040;30.320;2023-05-07T23:18:45;2.08;;;1.52;;
66145;SDS011;52948;60.040;30.320;2023-05-07T23:23:48;2.53;;;1.55;;
66145;SDS011;52948;60.040;30.320;2023-05-07T23:28:51;2.25;;;1.38;;
66145;SDS011;52948;60.040;30.320;2023-05-07T23:33:53;2.75;;;1.50;;
66145;SDS011;52948;60.040;30.320;2023-05-07T23:38:55;4.18;;;1.58;;
66145;SDS011;52948;60.040;30.320;2023-05-07T23:43:57;4.32;;;1.70;;
66145;SDS011;52948;60.040;30.320;2023-05-07T23:48:59;4.25;;;1.60;;
66145;SDS011;52948;60.040;30.320;2023-05-07T23:54:02;3.58;;;2.00;;
66145;SDS011;52948;60.040;30.320;2023-05-07T23:59:04;6.90;;;2.72;;
